sensor_id;sensor_type;location;lat;lon;timestamp;P1;durP1;ratioP1;P2;durP2;ratioP2
1154;SDS011;566;48.414;9.118;2023-03-24T00:00:06;4.63;;;1.88;;
1154;SDS011;566;48.414;9.118;2023-03-24T00:02:35;4.65;;;1.73;;
1154;SDS011;566;48.414;9.118;2023-03-24T00:05:13;4.82;;;1.95;;
1154;SDS011;566;48.414;9.118;2023-03-24T00:07:40;5.38;;;2.10;;
1154;SDS011;566;48.414;9.118;2023-03-24T00:10:12;7.32;;;2.28;;
1154;SDS011;566;48.414;9.118;2023-03-24T00:12:39;4.38;;;2.40;;
1154;SDS011;566;48.414;9.118;2023-03-24T00:15:07;5.07;;;2.05;;
1154;SDS011;566;48.414;9.118;2023-03-24T00:17:34;4.10;;;2.33;;
1154;SDS011;566;48.414;9.118;2023-03-24T00:20:01;5.07;;;2.53;;
1154;SDS011;566;48.414;9.118;2023-03-24T00:22:31;6.28;;;2.40;;
1154;SDS011;566;48.414;9.118;2023-03-24T00:24:57;6.00;;;2.53;;
1154;SDS011;566;48.414;9.118;2023-03-24T00:27:23;5.20;;;2.47;;
1154;SDS011;566;48.414;9.118;2023-03-24T00:29:48;5.28;;;2.33;;
1154;SDS011;566;48.414;9.118;2023-03-24T00:32:14;7.35;;;2.50;;
1154;SDS011;566;48.414;9.118;2023-03-24T00:34:40;4.10;;;2.30;;
1154;SDS011;566;48.414;9.118;2023-03-24T00:37:07;5.13;;;2.38;;
1154;SDS011;566;48.414;9.118;2023-03-24T00:39:33;7.18;;;2.88;;
1154;SDS011;566;48.414;9.118;2023-03-24T00:42:00;6.22;;;2.10;;
1154;SDS011;566;48.414;9.118;2023-03-24T00:44:26;6.00;;;2.50;;
1154;SDS011;566;48.414;9.118;2023-03-24T00:46:51;4.60;;;2.15;;
1154;SDS011;566;48.414;9.118;2023-03-24T00:49:24;4.65;;;2.15;;
1154;SDS011;566;48.414;9.118;2023-03-24T00:52:16;4.10;;;2.15;;
1154;SDS011;566;48.414;9.118;2023-03-24T00:54:44;6.25;;;2.10;;
1154;SDS011;566;48.414;9.118;2023-03-24T00:57:11;5.13;;;2.35;;
1154;SDS011;566;48.414;9.118;2023-03-24T00:59:39;4.90;;;2.10;;
1154;SDS011;566;48.414;9.118;2023-03-24T01:02:12;6.03;;;2.78;;
1154;SDS011;566;48.414;9.118;2023-03-24T01:04:39;7.03;;;2.20;;
1154;SDS011;566;48.414;9.118;2023-03-24T01:07:08;4.18;;;2.20;;
1154;SDS011;566;48.414;9.118;2023-03-24T01:09:36;4.35;;;2.20;;
1154;SDS011;566;48.414;9.118;2023-03-24T01:12:02;4.57;;;2.33;;
1154;SDS011;566;48.414;9.118;2023-03-24T01:14:29;5.22;;;1.95;;
1154;SDS011;566;48.414;9.118;2023-03-24T01:16:56;4.50;;;2.47;;
1154;SDS011;566;48.414;9.118;2023-03-24T01:19:22;4.97;;;2.05;;
1154;SDS011;566;48.414;9.118;2023-03-24T01:21:49;4.22;;;2.10;;
1154;SDS011;566;48.414;9.118;2023-03-24T01:24:15;5.97;;;2.20;;
1154;SDS011;566;48.414;9.118;2023-03-24T01:26:42;4.82;;;1.88;;
1154;SDS011;566;48.414;9.118;2023-03-24T01:29:08;5.20;;;2.20;;
1154;SDS011;566;48.414;9.118;2023-03-24T01:31:34;4.63;;;2.05;;
1154;SDS011;566;48.414;9.118;2023-03-24T01:33:59;4.18;;;2.20;;
1154;SDS011;566;48.414;9.118;2023-03-24T01:36:25;3.70;;;1.90;;
1154;SDS011;566;48.414;9.118;2023-03-24T01:38:51;3.97;;;1.77;;
1154;SDS011;566;48.414;9.118;2023-03-24T01:41:16;4.47;;;1.98;;
1154;SDS011;566;48.414;9.118;2023-03-24T01:43:42;4.47;;;2.08;;
1154;SDS011;566;48.414;9.118;2023-03-24T01:46:13;6.20;;;1.92;;
1154;SDS011;566;48.414;9.118;2023-03-24T01:48:47;6.32;;;2.33;;
1154;SDS011;566;48.414;9.118;2023-03-24T01:53:57;4.93;;;2.05;;
1154;SDS011;566;48.414;9.118;2023-03-24T01:56:25;4.20;;;1.88;;
1154;SDS011;566;48.414;9.118;2023-03-24T01:59:00;4.13;;;2.10;;
1154;SDS011;566;48.414;9.118;2023-03-24T02:01:30;5.80;;;1.63;;
1154;SDS011;566;48.414;9.118;2023-03-24T02:04:00;4.85;;;2.00;;
1154;SDS011;566;48.414;9.118;2023-03-24T02:06:33;3.83;;;1.88;;
1154;SDS011;566;48.414;9.118;2023-03-24T02:09:05;5.30;;;2.13;;
1154;SDS011;566;48.414;9.118;2023-03-24T02:11:32;5.85;;;1.67;;
1154;SDS011;566;48.414;9.118;2023-03-24T02:14:00;4.72;;;2.00;;
1154;SDS011;566;48.414;9.118;2023-03-24T02:35:56;6.53;;;1.92;;
1154;SDS011;566;48.414;9.118;2023-03-24T02:41:18;6.50;;;2.15;;
1154;SDS011;566;48.414;9.118;2023-03-24T02:44:06;5.82;;;2.13;;
1154;SDS011;566;48.414;9.118;2023-03-24T02:46:44;5.13;;;2.08;;
1154;SDS011;566;48.414;9.118;2023-03-24T02:55:14;4.15;;;2.00;;
1154;SDS011;566;48.414;9.118;2023-03-24T02:58:02;4.78;;;2.00;;
1154;SDS011;566;48.414;9.118;2023-03-24T03:03:11;4.40;;;1.88;;
1154;SDS011;566;48.414;9.118;2023-03-24T03:05:50;4.13;;;1.98;;
1154;SDS011;566;48.414;9.118;2023-03-24T03:08:31;4.05;;;1.90;;
1154;SDS011;566;48.414;9.118;2023-03-24T03:10:58;5.38;;;2.17;;
1154;SDS011;566;48.414;9.118;2023-03-24T03:13:31;4.50;;;2.40;;
1154;SDS011;566;48.414;9.118;2023-03-24T03:16:04;5.00;;;1.90;;
1154;SDS011;566;48.414;9.118;2023-03-24T03:18:41;5.47;;;2.35;;
1154;SDS011;566;48.414;9.118;2023-03-24T03:21:12;6.32;;;2.30;;
1154;SDS011;566;48.414;9.118;2023-03-24T03:23:48;5.82;;;2.40;;
1154;SDS011;566;48.414;9.118;2023-03-24T03:26:18;5.00;;;2.33;;
1154;SDS011;566;48.414;9.118;2023-03-24T03:28:49;9.73;;;2.35;;
1154;SDS011;566;48.414;9.118;2023-03-24T03:31:24;4.55;;;2.00;;
1154;SDS011;566;48.414;9.118;2023-03-24T03:34:08;5.30;;;2.20;;
1154;SDS011;566;48.414;9.118;2023-03-24T03:36:53;4.53;;;2.08;;
1154;SDS011;566;48.414;9.118;2023-03-24T03:39:27;4.53;;;2.10;;
1154;SDS011;566;48.414;9.118;2023-03-24T03:41:55;6.30;;;2.63;;
1154;SDS011;566;48.414;9.118;2023-03-24T03:44:21;4.43;;;2.30;;
1154;SDS011;566;48.414;9.118;2023-03-24T03:46:47;5.47;;;2.05;;
1154;SDS011;566;48.414;9.118;2023-03-24T03:49:12;4.82;;;2.20;;
1154;SDS011;566;48.414;9.118;2023-03-24T03:51:40;3.72;;;1.90;;
1154;SDS011;566;48.414;9.118;2023-03-24T03:54:07;13.48;;;3.13;;
1154;SDS011;566;48.414;9.118;2023-03-24T03:56:36;4.05;;;1.98;;
1154;SDS011;566;48.414;9.118;2023-03-24T03:59:03;5.13;;;1.90;;
1154;SDS011;566;48.414;9.118;2023-03-24T04:01:30;3.90;;;1.85;;
1154;SDS011;566;48.414;9.118;2023-03-24T04:07:02;2.90;;;1.50;;
1154;SDS011;566;48.414;9.118;2023-03-24T04:09:36;3.00;;;1.38;;
1154;SDS011;566;48.414;9.118;2023-03-24T04:12:24;6.22;;;1.80;;
1154;SDS011;566;48.414;9.118;2023-03-24T04:20:32;3.60;;;1.47;;
1154;SDS011;566;48.414;9.118;2023-03-24T04:31:30;2.55;;;1.20;;
1154;SDS011;566;48.414;9.118;2023-03-24T04:36:44;4.10;;;1.30;;
1154;SDS011;566;48.414;9.118;2023-03-24T04:39:19;5.63;;;1.20;;
1154;SDS011;566;48.414;9.118;2023-03-24T04:41:53;2.90;;;1.45;;
1154;SDS011;566;48.414;9.118;2023-03-24T04:44:20;2.42;;;1.27;;
1154;SDS011;566;48.414;9.118;2023-03-24T04:46:48;3.05;;;1.33;;
1154;SDS011;566;48.414;9.118;2023-03-24T04:49:15;2.72;;;1.63;;
1154;SDS011;566;48.414;9.118;2023-03-24T04:51:43;3.80;;;1.40;;
1154;SDS011;566;48.414;9.118;2023-03-24T04:54:09;3.67;;;1.50;;
1154;SDS011;566;48.414;9.118;2023-03-24T04:56:40;8.90;;;1.90;;
1154;SDS011;566;48.414;9.118;2023-03-24T04:59:29;3.50;;;1.40;;
1154;SDS011;566;48.414;9.118;2023-03-24T05:01:58;5.53;;;2.00;;
1154;SDS011;566;48.414;9.118;2023-03-24T05:04:25;3.35;;;1.40;;
1154;SDS011;566;48.414;9.118;2023-03-24T05:06:52;3.33;;;1.52;;
1154;SDS011;566;48.414;9.118;2023-03-24T05:09:19;3.78;;;1.55;;
1154;SDS011;566;48.414;9.118;2023-03-24T05:11:46;4.28;;;1.40;;
1154;SDS011;566;48.414;9.118;2023-03-24T05:14:12;3.55;;;1.65;;
1154;SDS011;566;48.414;9.118;2023-03-24T05:16:38;4.40;;;1.40;;
1154;SDS011;566;48.414;9.118;2023-03-24T05:19:04;3.65;;;1.60;;
1154;SDS011;566;48.414;9.118;2023-03-24T05:21:30;3.60;;;1.50;;
1154;SDS011;566;48.414;9.118;2023-03-24T05:23:56;5.90;;;1.90;;
1154;SDS011;566;48.414;9.118;2023-03-24T05:26:21;3.70;;;1.80;;
1154;SDS011;566;48.414;9.118;2023-03-24T05:28:47;3.38;;;1.65;;
1154;SDS011;566;48.414;9.118;2023-03-24T05:31:13;3.80;;;1.80;;
1154;SDS011;566;48.414;9.118;2023-03-24T05:33:39;6.07;;;1.80;;
1154;SDS011;566;48.414;9.118;2023-03-24T05:36:04;5.50;;;2.25;;
1154;SDS011;566;48.414;9.118;2023-03-24T05:38:30;8.48;;;2.25;;
1154;SDS011;566;48.414;9.118;2023-03-24T05:40:56;7.32;;;2.42;;
1154;SDS011;566;48.414;9.118;2023-03-24T05:43:23;4.65;;;2.25;;
1154;SDS011;566;48.414;9.118;2023-03-24T05:45:49;6.55;;;2.88;;
1154;SDS011;566;48.414;9.118;2023-03-24T05:48:14;6.70;;;3.58;;
1154;SDS011;566;48.414;9.118;2023-03-24T05:50:40;5.07;;;2.60;;
1154;SDS011;566;48.414;9.118;2023-03-24T05:53:05;4.75;;;2.30;;
1154;SDS011;566;48.414;9.118;2023-03-24T05:55:31;4.93;;;2.60;;
1154;SDS011;566;48.414;9.118;2023-03-24T05:57:57;5.45;;;2.47;;
1154;SDS011;566;48.414;9.118;2023-03-24T06:00:26;4.65;;;2.70;;
1154;SDS011;566;48.414;9.118;2023-03-24T06:02:52;5.25;;;2.80;;
1154;SDS011;566;48.414;9.118;2023-03-24T06:05:18;5.43;;;3.15;;
1154;SDS011;566;48.414;9.118;2023-03-24T06:07:44;4.20;;;2.40;;
1154;SDS011;566;48.414;9.118;2023-03-24T06:10:10;5.07;;;2.78;;
1154;SDS011;566;48.414;9.118;2023-03-24T06:12:38;6.00;;;3.40;;
1154;SDS011;566;48.414;9.118;2023-03-24T06:15:04;4.95;;;2.95;;
1154;SDS011;566;48.414;9.118;2023-03-24T06:17:31;5.47;;;2.85;;
1154;SDS011;566;48.414;9.118;2023-03-24T06:19:57;4.70;;;2.80;;
1154;SDS011;566;48.414;9.118;2023-03-24T06:22:33;8.85;;;3.25;;
1154;SDS011;566;48.414;9.118;2023-03-24T06:24:58;5.07;;;3.08;;
1154;SDS011;566;48.414;9.118;2023-03-24T06:27:25;6.00;;;3.65;;
1154;SDS011;566;48.414;9.118;2023-03-24T06:29:56;5.38;;;3.30;;
1154;SDS011;566;48.414;9.118;2023-03-24T06:32:22;5.85;;;3.28;;
1154;SDS011;566;48.414;9.118;2023-03-24T06:34:49;5.50;;;3.38;;
1154;SDS011;566;48.414;9.118;2023-03-24T06:37:14;6.93;;;3.60;;
1154;SDS011;566;48.414;9.118;2023-03-24T06:39:40;5.25;;;2.97;;
1154;SDS011;566;48.414;9.118;2023-03-24T06:42:06;5.18;;;3.15;;
1154;SDS011;566;48.414;9.118;2023-03-24T06:44:31;5.15;;;3.00;;
1154;SDS011;566;48.414;9.118;2023-03-24T06:46:57;5.22;;;3.00;;
1154;SDS011;566;48.414;9.118;2023-03-24T06:49:23;5.05;;;2.97;;
1154;SDS011;566;48.414;9.118;2023-03-24T06:51:48;6.20;;;3.20;;
1154;SDS011;566;48.414;9.118;2023-03-24T06:54:14;5.20;;;3.00;;
1154;SDS011;566;48.414;9.118;2023-03-24T06:56:40;5.55;;;3.10;;
1154;SDS011;566;48.414;9.118;2023-03-24T06:59:06;8.82;;;3.95;;
1154;SDS011;566;48.414;9.118;2023-03-24T07:01:32;5.65;;;3.05;;
1154;SDS011;566;48.414;9.118;2023-03-24T07:04:02;5.65;;;3.40;;
1154;SDS011;566;48.414;9.118;2023-03-24T07:06:28;5.88;;;2.88;;
1154;SDS011;566;48.414;9.118;2023-03-24T07:08:54;6.50;;;3.72;;
1154;SDS011;566;48.414;9.118;2023-03-24T07:11:20;96.00;;;13.25;;
1154;SDS011;566;48.414;9.118;2023-03-24T07:13:46;18.23;;;4.88;;
1154;SDS011;566;48.414;9.118;2023-03-24T07:16:11;6.95;;;3.85;;
1154;SDS011;566;48.414;9.118;2023-03-24T07:18:37;7.60;;;4.13;;
1154;SDS011;566;48.414;9.118;2023-03-24T07:21:03;7.07;;;4.15;;
1154;SDS011;566;48.414;9.118;2023-03-24T07:23:30;11.98;;;5.15;;
1154;SDS011;566;48.414;9.118;2023-03-24T07:25:56;31.13;;;7.55;;
1154;SDS011;566;48.414;9.118;2023-03-24T07:28:22;7.15;;;4.43;;
1154;SDS011;566;48.414;9.118;2023-03-24T07:30:47;7.53;;;4.40;;
1154;SDS011;566;48.414;9.118;2023-03-24T07:33:13;7.88;;;4.05;;
1154;SDS011;566;48.414;9.118;2023-03-24T07:35:39;8.32;;;4.90;;
1154;SDS011;566;48.414;9.118;2023-03-24T07:38:04;7.72;;;4.47;;
1154;SDS011;566;48.414;9.118;2023-03-24T07:40:33;11.68;;;5.45;;
1154;SDS011;566;48.414;9.118;2023-03-24T07:43:00;5.47;;;3.35;;
1154;SDS011;566;48.414;9.118;2023-03-24T07:45:26;7.38;;;3.60;;
1154;SDS011;566;48.414;9.118;2023-03-24T07:47:52;7.78;;;4.47;;
1154;SDS011;566;48.414;9.118;2023-03-24T07:50:21;6.18;;;3.90;;
1154;SDS011;566;48.414;9.118;2023-03-24T07:52:47;16.80;;;5.90;;
1154;SDS011;566;48.414;9.118;2023-03-24T07:55:13;31.48;;;6.70;;
1154;SDS011;566;48.414;9.118;2023-03-24T07:57:40;18.65;;;4.95;;
1154;SDS011;566;48.414;9.118;2023-03-24T08:00:08;6.45;;;3.42;;
1154;SDS011;566;48.414;9.118;2023-03-24T08:02:39;7.65;;;3.72;;
1154;SDS011;566;48.414;9.118;2023-03-24T08:05:05;5.38;;;3.35;;
1154;SDS011;566;48.414;9.118;2023-03-24T08:07:33;5.35;;;3.40;;
1154;SDS011;566;48.414;9.118;2023-03-24T08:09:58;5.25;;;3.22;;
1154;SDS011;566;48.414;9.118;2023-03-24T08:12:24;7.32;;;4.30;;
1154;SDS011;566;48.414;9.118;2023-03-24T08:14:50;6.18;;;3.08;;
1154;SDS011;566;48.414;9.118;2023-03-24T08:17:16;8.88;;;4.32;;
1154;SDS011;566;48.414;9.118;2023-03-24T08:19:41;13.45;;;6.60;;
1154;SDS011;566;48.414;9.118;2023-03-24T08:22:07;10.50;;;7.22;;
1154;SDS011;566;48.414;9.118;2023-03-24T08:24:33;10.60;;;5.72;;
1154;SDS011;566;48.414;9.118;2023-03-24T08:27:00;9.88;;;6.22;;
1154;SDS011;566;48.414;9.118;2023-03-24T08:29:30;13.93;;;7.50;;
1154;SDS011;566;48.414;9.118;2023-03-24T08:31:58;16.55;;;9.30;;
1154;SDS011;566;48.414;9.118;2023-03-24T08:34:24;8.60;;;5.18;;
1154;SDS011;566;48.414;9.118;2023-03-24T08:36:50;10.82;;;5.70;;
1154;SDS011;566;48.414;9.118;2023-03-24T08:39:16;10.50;;;6.22;;
1154;SDS011;566;48.414;9.118;2023-03-24T08:41:42;13.82;;;6.25;;
1154;SDS011;566;48.414;9.118;2023-03-24T08:44:07;7.18;;;2.95;;
1154;SDS011;566;48.414;9.118;2023-03-24T08:46:35;7.15;;;3.20;;
1154;SDS011;566;48.414;9.118;2023-03-24T08:49:01;4.70;;;2.70;;
1154;SDS011;566;48.414;9.118;2023-03-24T08:51:27;4.57;;;2.53;;
1154;SDS011;566;48.414;9.118;2023-03-24T08:53:52;5.28;;;2.78;;
1154;SDS011;566;48.414;9.118;2023-03-24T08:56:19;4.07;;;2.10;;
1154;SDS011;566;48.414;9.118;2023-03-24T08:58:45;4.70;;;2.38;;
1154;SDS011;566;48.414;9.118;2023-03-24T09:01:15;3.35;;;1.88;;
1154;SDS011;566;48.414;9.118;2023-03-24T09:03:41;4.50;;;2.08;;
1154;SDS011;566;48.414;9.118;2023-03-24T09:06:08;3.75;;;2.00;;
1154;SDS011;566;48.414;9.118;2023-03-24T09:08:34;3.58;;;2.00;;
1154;SDS011;566;48.414;9.118;2023-03-24T09:11:00;3.45;;;1.70;;
1154;SDS011;566;48.414;9.118;2023-03-24T09:13:26;3.40;;;1.75;;
1154;SDS011;566;48.414;9.118;2023-03-24T09:15:52;3.05;;;1.52;;
1154;SDS011;566;48.414;9.118;2023-03-24T09:18:21;2.65;;;1.40;;
1154;SDS011;566;48.414;9.118;2023-03-24T09:20:47;3.20;;;1.40;;
1154;SDS011;566;48.414;9.118;2023-03-24T09:23:13;2.60;;;1.20;;
1154;SDS011;566;48.414;9.118;2023-03-24T09:25:39;2.15;;;1.05;;
1154;SDS011;566;48.414;9.118;2023-03-24T09:28:05;2.65;;;1.20;;
1154;SDS011;566;48.414;9.118;2023-03-24T09:30:32;1.45;;;0.93;;
1154;SDS011;566;48.414;9.118;2023-03-24T09:32:58;2.10;;;1.05;;
1154;SDS011;566;48.414;9.118;2023-03-24T09:35:27;2.40;;;0.95;;
1154;SDS011;566;48.414;9.118;2023-03-24T09:37:53;1.92;;;1.00;;
1154;SDS011;566;48.414;9.118;2023-03-24T09:40:21;1.73;;;0.98;;
1154;SDS011;566;48.414;9.118;2023-03-24T09:43:01;2.05;;;1.00;;
1154;SDS011;566;48.414;9.118;2023-03-24T09:45:32;5.82;;;2.85;;
1154;SDS011;566;48.414;9.118;2023-03-24T09:48:11;2.78;;;1.30;;
1154;SDS011;566;48.414;9.118;2023-03-24T09:58:34;3.15;;;1.20;;
1154;SDS011;566;48.414;9.118;2023-03-24T10:01:00;2.13;;;1.00;;
1154;SDS011;566;48.414;9.118;2023-03-24T10:03:26;2.58;;;1.17;;
1154;SDS011;566;48.414;9.118;2023-03-24T10:05:53;1.70;;;0.90;;
1154;SDS011;566;48.414;9.118;2023-03-24T10:08:34;2.75;;;1.13;;
1154;SDS011;566;48.414;9.118;2023-03-24T10:16:42;3.08;;;1.40;;
1154;SDS011;566;48.414;9.118;2023-03-24T10:22:20;2.58;;;1.20;;
1154;SDS011;566;48.414;9.118;2023-03-24T10:27:30;1.95;;;1.20;;
1154;SDS011;566;48.414;9.118;2023-03-24T10:30:14;2.25;;;1.10;;
1154;SDS011;566;48.414;9.118;2023-03-24T10:32:43;3.58;;;1.90;;
1154;SDS011;566;48.414;9.118;2023-03-24T10:35:27;3.65;;;1.60;;
1154;SDS011;566;48.414;9.118;2023-03-24T10:37:55;3.20;;;1.50;;
1154;SDS011;566;48.414;9.118;2023-03-24T10:40:25;3.03;;;1.27;;
1154;SDS011;566;48.414;9.118;2023-03-24T10:42:55;5.30;;;1.30;;
1154;SDS011;566;48.414;9.118;2023-03-24T10:45:31;2.00;;;1.13;;
1154;SDS011;566;48.414;9.118;2023-03-24T10:47:58;3.35;;;1.27;;
1154;SDS011;566;48.414;9.118;2023-03-24T10:50:26;2.80;;;1.30;;
1154;SDS011;566;48.414;9.118;2023-03-24T10:52:53;2.30;;;1.10;;
1154;SDS011;566;48.414;9.118;2023-03-24T10:55:23;3.05;;;1.40;;
1154;SDS011;566;48.414;9.118;2023-03-24T10:57:56;2.75;;;1.33;;
1154;SDS011;566;48.414;9.118;2023-03-24T11:00:26;3.15;;;1.30;;
1154;SDS011;566;48.414;9.118;2023-03-24T11:02:59;3.72;;;1.20;;
1154;SDS011;566;48.414;9.118;2023-03-24T11:05:32;3.90;;;1.50;;
1154;SDS011;566;48.414;9.118;2023-03-24T11:11:00;3.10;;;1.35;;
1154;SDS011;566;48.414;9.118;2023-03-24T11:13:54;3.80;;;1.40;;
1154;SDS011;566;48.414;9.118;2023-03-24T11:16:25;3.85;;;1.90;;
1154;SDS011;566;48.414;9.118;2023-03-24T11:19:00;2.38;;;1.30;;
1154;SDS011;566;48.414;9.118;2023-03-24T11:21:28;3.63;;;1.30;;
1154;SDS011;566;48.414;9.118;2023-03-24T11:24:00;2.60;;;1.20;;
1154;SDS011;566;48.414;9.118;2023-03-24T11:26:30;2.13;;;1.20;;
1154;SDS011;566;48.414;9.118;2023-03-24T11:29:03;3.15;;;1.15;;
1154;SDS011;566;48.414;9.118;2023-03-24T11:31:38;2.88;;;1.20;;
1154;SDS011;566;48.414;9.118;2023-03-24T11:34:15;2.08;;;1.00;;
1154;SDS011;566;48.414;9.118;2023-03-24T11:36:55;3.05;;;1.00;;
1154;SDS011;566;48.414;9.118;2023-03-24T11:39:27;2.35;;;1.00;;
1154;SDS011;566;48.414;9.118;2023-03-24T11:44:46;2.55;;;1.20;;
1154;SDS011;566;48.414;9.118;2023-03-24T11:47:29;2.30;;;0.98;;
1154;SDS011;566;48.414;9.118;2023-03-24T11:55:17;1.83;;;1.00;;
1154;SDS011;566;48.414;9.118;2023-03-24T11:57:59;3.90;;;1.00;;
1154;SDS011;566;48.414;9.118;2023-03-24T12:00:34;2.63;;;1.27;;
1154;SDS011;566;48.414;9.118;2023-03-24T12:14:10;2.70;;;1.25;;
1154;SDS011;566;48.414;9.118;2023-03-24T12:16:49;6.13;;;0.98;;
1154;SDS011;566;48.414;9.118;2023-03-24T12:22:15;4.20;;;1.30;;
1154;SDS011;566;48.414;9.118;2023-03-24T12:25:07;2.08;;;1.02;;
1154;SDS011;566;48.414;9.118;2023-03-24T12:27:51;2.00;;;1.00;;
1154;SDS011;566;48.414;9.118;2023-03-24T12:36:19;2.35;;;0.90;;
1154;SDS011;566;48.414;9.118;2023-03-24T12:41:38;2.63;;;1.20;;
1154;SDS011;566;48.414;9.118;2023-03-24T12:53:09;2.65;;;0.98;;
1154;SDS011;566;48.414;9.118;2023-03-24T13:06:37;1.60;;;0.70;;
1154;SDS011;566;48.414;9.118;2023-03-24T13:15:08;0.82;;;0.63;;
1154;SDS011;566;48.414;9.118;2023-03-24T13:17:51;2.67;;;0.70;;
1154;SDS011;566;48.414;9.118;2023-03-24T13:20:39;1.13;;;0.70;;
1154;SDS011;566;48.414;9.118;2023-03-24T13:29:09;2.78;;;1.15;;
1154;SDS011;566;48.414;9.118;2023-03-24T13:34:29;1.95;;;0.90;;
1154;SDS011;566;48.414;9.118;2023-03-24T13:36:59;2.88;;;0.80;;
1154;SDS011;566;48.414;9.118;2023-03-24T13:39:30;1.00;;;0.68;;
1154;SDS011;566;48.414;9.118;2023-03-24T13:41:59;1.58;;;0.80;;
1154;SDS011;566;48.414;9.118;2023-03-24T13:44:36;1.08;;;0.70;;
1154;SDS011;566;48.414;9.118;2023-03-24T13:47:17;2.60;;;1.05;;
1154;SDS011;566;48.414;9.118;2023-03-24T13:49:59;1.73;;;0.70;;
1154;SDS011;566;48.414;9.118;2023-03-24T13:52:38;1.67;;;0.90;;
1154;SDS011;566;48.414;9.118;2023-03-24T13:55:13;1.08;;;0.60;;
1154;SDS011;566;48.414;9.118;2023-03-24T13:57:57;1.50;;;0.73;;
1154;SDS011;566;48.414;9.118;2023-03-24T14:00:28;1.25;;;0.70;;
1154;SDS011;566;48.414;9.118;2023-03-24T14:02:55;1.50;;;0.80;;
1154;SDS011;566;48.414;9.118;2023-03-24T14:05:31;1.38;;;0.77;;
1154;SDS011;566;48.414;9.118;2023-03-24T14:08:18;0.90;;;0.60;;
1154;SDS011;566;48.414;9.118;2023-03-24T14:14:21;1.00;;;0.70;;
1154;SDS011;566;48.414;9.118;2023-03-24T14:17:01;1.50;;;0.80;;
1154;SDS011;566;48.414;9.118;2023-03-24T14:22:11;1.05;;;0.70;;
1154;SDS011;566;48.414;9.118;2023-03-24T14:24:59;1.00;;;0.75;;
1154;SDS011;566;48.414;9.118;2023-03-24T14:30:10;0.80;;;0.68;;
1154;SDS011;566;48.414;9.118;2023-03-24T14:32:53;1.27;;;0.70;;
1154;SDS011;566;48.414;9.118;2023-03-24T14:35:32;3.60;;;0.90;;
1154;SDS011;566;48.414;9.118;2023-03-24T14:38:04;1.60;;;0.90;;
1154;SDS011;566;48.414;9.118;2023-03-24T14:40:51;2.00;;;0.90;;
1154;SDS011;566;48.414;9.118;2023-03-24T14:46:31;2.22;;;0.80;;
1154;SDS011;566;48.414;9.118;2023-03-24T14:49:05;2.08;;;0.80;;
1154;SDS011;566;48.414;9.118;2023-03-24T14:51:35;2.55;;;0.80;;
1154;SDS011;566;48.414;9.118;2023-03-24T14:54:10;1.52;;;0.80;;
1154;SDS011;566;48.414;9.118;2023-03-24T14:56:42;3.13;;;1.00;;
1154;SDS011;566;48.414;9.118;2023-03-24T15:00:13;1.83;;;0.90;;
1154;SDS011;566;48.414;9.118;2023-03-24T15:02:15;3.20;;;1.55;;
1154;SDS011;566;48.414;9.118;2023-03-24T15:10:55;1.52;;;0.80;;
1154;SDS011;566;48.414;9.118;2023-03-24T15:16:00;2.50;;;1.20;;
1154;SDS011;566;48.414;9.118;2023-03-24T15:18:32;2.50;;;1.13;;
1154;SDS011;566;48.414;9.118;2023-03-24T15:20:58;1.98;;;0.88;;
1154;SDS011;566;48.414;9.118;2023-03-24T15:23:25;2.70;;;1.05;;
1154;SDS011;566;48.414;9.118;2023-03-24T15:25:55;1.45;;;0.82;;
1154;SDS011;566;48.414;9.118;2023-03-24T15:28:22;2.10;;;1.02;;
1154;SDS011;566;48.414;9.118;2023-03-24T15:30:51;1.30;;;0.80;;
1154;SDS011;566;48.414;9.118;2023-03-24T15:33:17;3.80;;;1.27;;
1154;SDS011;566;48.414;9.118;2023-03-24T15:35:46;3.95;;;1.50;;
1154;SDS011;566;48.414;9.118;2023-03-24T15:38:19;5.50;;;1.02;;
1154;SDS011;566;48.414;9.118;2023-03-24T15:41:04;2.00;;;1.10;;
1154;SDS011;566;48.414;9.118;2023-03-24T15:43:40;3.13;;;1.20;;
1154;SDS011;566;48.414;9.118;2023-03-24T15:46:16;2.72;;;1.02;;
1154;SDS011;566;48.414;9.118;2023-03-24T15:48:51;2.35;;;1.00;;
1154;SDS011;566;48.414;9.118;2023-03-24T15:51:18;2.28;;;1.05;;
1154;SDS011;566;48.414;9.118;2023-03-24T15:53:45;2.00;;;0.95;;
1154;SDS011;566;48.414;9.118;2023-03-24T16:01:27;3.10;;;1.00;;
1154;SDS011;566;48.414;9.118;2023-03-24T16:04:16;2.33;;;1.00;;
1154;SDS011;566;48.414;9.118;2023-03-24T16:06:48;4.63;;;1.40;;
1154;SDS011;566;48.414;9.118;2023-03-24T16:09:17;2.53;;;1.20;;
1154;SDS011;566;48.414;9.118;2023-03-24T16:11:51;2.65;;;1.20;;
1154;SDS011;566;48.414;9.118;2023-03-24T16:14:21;2.20;;;1.02;;
1154;SDS011;566;48.414;9.118;2023-03-24T16:19:18;2.75;;;1.35;;
1154;SDS011;566;48.414;9.118;2023-03-24T16:21:44;2.97;;;1.50;;
1154;SDS011;566;48.414;9.118;2023-03-24T16:24:09;3.10;;;1.30;;
1154;SDS011;566;48.414;9.118;2023-03-24T16:26:35;5.75;;;2.80;;
1154;SDS011;566;48.414;9.118;2023-03-24T16:29:20;17.27;;;9.60;;
1154;SDS011;566;48.414;9.118;2023-03-24T16:31:47;3.83;;;1.88;;
1154;SDS011;566;48.414;9.118;2023-03-24T16:34:15;4.30;;;2.10;;
1154;SDS011;566;48.414;9.118;2023-03-24T16:36:44;3.80;;;1.33;;
1154;SDS011;566;48.414;9.118;2023-03-24T16:39:18;4.70;;;1.85;;
1154;SDS011;566;48.414;9.118;2023-03-24T16:41:45;3.25;;;1.40;;
1154;SDS011;566;48.414;9.118;2023-03-24T16:44:11;3.90;;;2.03;;
1154;SDS011;566;48.414;9.118;2023-03-24T16:46:38;4.85;;;2.78;;
1154;SDS011;566;48.414;9.118;2023-03-24T16:49:05;3.40;;;1.30;;
1154;SDS011;566;48.414;9.118;2023-03-24T16:51:33;3.50;;;2.00;;
1154;SDS011;566;48.414;9.118;2023-03-24T16:53:59;3.33;;;1.50;;
1154;SDS011;566;48.414;9.118;2023-03-24T16:56:24;4.07;;;1.50;;
1154;SDS011;566;48.414;9.118;2023-03-24T16:58:50;3.42;;;1.60;;
1154;SDS011;566;48.414;9.118;2023-03-24T17:01:26;3.60;;;1.60;;
1154;SDS011;566;48.414;9.118;2023-03-24T17:03:59;3.53;;;1.88;;
1154;SDS011;566;48.414;9.118;2023-03-24T17:06:30;3.55;;;1.60;;
1154;SDS011;566;48.414;9.118;2023-03-24T17:08:57;2.80;;;1.48;;
1154;SDS011;566;48.414;9.118;2023-03-24T17:11:30;3.45;;;1.50;;
1154;SDS011;566;48.414;9.118;2023-03-24T17:13:58;5.68;;;1.65;;
1154;SDS011;566;48.414;9.118;2023-03-24T17:16:30;3.03;;;1.63;;
1154;SDS011;566;48.414;9.118;2023-03-24T17:19:00;3.08;;;1.50;;
1154;SDS011;566;48.414;9.118;2023-03-24T17:21:32;3.85;;;1.70;;
1154;SDS011;566;48.414;9.118;2023-03-24T17:24:01;4.20;;;1.70;;
1154;SDS011;566;48.414;9.118;2023-03-24T17:26:27;4.10;;;2.55;;
1154;SDS011;566;48.414;9.118;2023-03-24T17:28:52;3.78;;;1.50;;
1154;SDS011;566;48.414;9.118;2023-03-24T17:31:18;3.88;;;1.58;;
1154;SDS011;566;48.414;9.118;2023-03-24T17:33:44;5.15;;;1.90;;
1154;SDS011;566;48.414;9.118;2023-03-24T17:36:13;4.82;;;1.73;;
1154;SDS011;566;48.414;9.118;2023-03-24T17:38:40;3.50;;;1.45;;
1154;SDS011;566;48.414;9.118;2023-03-24T17:41:07;6.45;;;2.47;;
1154;SDS011;566;48.414;9.118;2023-03-24T17:43:33;4.25;;;2.40;;
1154;SDS011;566;48.414;9.118;2023-03-24T17:45:59;4.32;;;2.33;;
1154;SDS011;566;48.414;9.118;2023-03-24T17:48:25;6.10;;;4.25;;
1154;SDS011;566;48.414;9.118;2023-03-24T17:50:52;6.63;;;5.47;;
1154;SDS011;566;48.414;9.118;2023-03-24T17:53:18;11.13;;;10.02;;
1154;SDS011;566;48.414;9.118;2023-03-24T17:55:59;3.67;;;1.70;;
1154;SDS011;566;48.414;9.118;2023-03-24T17:58:29;6.35;;;4.82;;
1154;SDS011;566;48.414;9.118;2023-03-24T18:00:56;7.20;;;5.93;;
1154;SDS011;566;48.414;9.118;2023-03-24T18:03:23;8.13;;;5.38;;
1154;SDS011;566;48.414;9.118;2023-03-24T18:05:49;6.05;;;2.10;;
1154;SDS011;566;48.414;9.118;2023-03-24T18:08:15;5.03;;;2.35;;
1154;SDS011;566;48.414;9.118;2023-03-24T18:10:41;7.68;;;2.20;;
1154;SDS011;566;48.414;9.118;2023-03-24T18:13:08;4.38;;;1.70;;
1154;SDS011;566;48.414;9.118;2023-03-24T18:15:34;5.95;;;4.07;;
1154;SDS011;566;48.414;9.118;2023-03-24T18:18:00;5.00;;;2.80;;
1154;SDS011;566;48.414;9.118;2023-03-24T18:20:26;4.53;;;2.08;;
1154;SDS011;566;48.414;9.118;2023-03-24T18:22:52;4.18;;;2.00;;
1154;SDS011;566;48.414;9.118;2023-03-24T18:25:17;9.35;;;2.05;;
1154;SDS011;566;48.414;9.118;2023-03-24T18:27:43;4.80;;;2.15;;
1154;SDS011;566;48.414;9.118;2023-03-24T18:30:11;6.50;;;4.30;;
1154;SDS011;566;48.414;9.118;2023-03-24T18:32:38;10.77;;;2.00;;
1154;SDS011;566;48.414;9.118;2023-03-24T18:35:04;3.92;;;1.88;;